Midland International Airport
KMAF : now visible

Airfield :











YOU CAN JOIN US ON...

 
LOGIN :

Register | Disclaimer

   EN    FR    IT 

 









Legend :    VFR   Marginal VFR   IFR   Intensive IFR   Very Intensive IFR
Visi :
Ceiling :
>= 8 km
>= 3000ft
5 to 8 km
1000 to 3000 ft
1500m to 5 km
500 to 1000 ft
800 to 1500m
200 to 500 ft
< 800m
< 200 ft
Symbols :   Thunderstorms  Fog  Heavy snow  Heavy precipitations  Wind > 20 kt






- Airport Elevation : 2871 ft
- IATA code : MAF


KMAF - Midland International

CURRENT METAR :
  • 261353Z 32006KT 10SM CLR 03/M02 A3008 RMK AO2 SLP173 T00331022

EXPIRED METARs :
  • 261253Z 32007KT 10SM CLR 04/M02 A3005 RMK AO2 SLP160 T00391022
  • 261153Z 30006KT 10SM CLR 05/M02 A3004 RMK AO2 SLP148 T00501022 10078 20033 50003

TAF KMAF
Valid from the 26 at 12:00 until the 27 at 12:00 UTC


261128Z 2612/2712 32008KT P6SM SKC
FM262100 23010KT P6SM SKC



MET'MAP, your aeronautical weather chart ! - Copyright ORBIFLY December 2007 - Disclaimer

ORBIFLY MET'MAP TEAM :

Programming & Development : Alexandra Zaïnal
Concept & original design : Baudouin d'Aumeries
Assistance for programming : Marc-Olivier Méhu
Technical & hardware support : Manuel Goepfert

Contact : metmap@orbifly.com




SOURCES & CREDITS :

   NOAA       Earth
Advisory